Burewala Weather



Burewala's Current Weather

Temprature 32.472o broken clouds

broken clouds

Rain: 0 %

Min Temprature32.472o
Max Temprature32.472o
Humidity17
Wind Speed3.34 m/h
Sun Rise06:12:38
Sun Set17:36:07
Current Time: 18-Oct-2019 16:53:59
Lat/Lon: 30.16, 72.68




Burewala's Geo Location



Burewala's Weather Forecast

Time Overall Temp Min Temp Max Temp Humidity Wind Speed Rain
18-Oct-2019 (Fri)
17:00:00 broken clouds 30.320 30.320 32.472 17 3.34 m/h 0 %
20:00:00 clear sky 23.720 23.720 25.333 31 4.33 m/h 0 %
23:00:00 light rain 20.350 20.350 21.419 52 4.33 m/h 38 %
19-Oct-2019 (Sat)
02:00:00 few clouds 21.340 21.340 21.878 45 3.33 m/h 0 %
05:00:00 clear sky 21.158 21.158 21.158 44 5.21 m/h 0 %
08:00:00 clear sky 25.792 25.792 25.792 34 5.2 m/h 0 %
11:00:00 clear sky 32.560 32.560 32.560 25 3.56 m/h 0 %
14:00:00 clear sky 35.633 35.633 35.633 16 2.83 m/h 0 %
17:00:00 scattered clouds 32.894 32.894 32.894 17 3.6 m/h 0 %
20:00:00 clear sky 27.121 27.121 27.121 26 2.14 m/h 0 %
23:00:00 clear sky 25.574 25.574 25.574 26 3.04 m/h 0 %
20-Oct-2019 (Sun)
02:00:00 clear sky 24.247 24.247 24.247 27 3.05 m/h 0 %
05:00:00 clear sky 21.008 21.008 21.008 33 1.51 m/h 0 %
08:00:00 clear sky 26.104 26.104 26.104 25 2.17 m/h 0 %
11:00:00 clear sky 33.740 33.740 33.740 15 2.76 m/h 0 %
14:00:00 clear sky 35.863 35.863 35.863 12 2.13 m/h 0 %
17:00:00 few clouds 32.801 32.801 32.801 13 2.17 m/h 0 %
20:00:00 broken clouds 27.053 27.053 27.053 20 3.15 m/h 0 %
23:00:00 scattered clouds 25.559 25.559 25.559 25 3.2 m/h 0 %
21-Oct-2019 (Mon)
02:00:00 clear sky 23.426 23.426 23.426 28 2.52 m/h 0 %
05:00:00 clear sky 21.797 21.797 21.797 29 2.37 m/h 0 %
08:00:00 clear sky 26.162 26.162 26.162 22 2.75 m/h 0 %
11:00:00 clear sky 34.735 34.735 34.735 12 3.54 m/h 0 %
14:00:00 clear sky 36.568 36.568 36.568 9 2.9 m/h 0 %
17:00:00 clear sky 33.124 33.124 33.124 11 2.33 m/h 0 %
20:00:00 clear sky 26.713 26.713 26.713 16 2.38 m/h 0 %
23:00:00 clear sky 25.024 25.024 25.024 19 1.27 m/h 0 %
22-Oct-2019 (Tue)
02:00:00 clear sky 23.922 23.922 23.922 20 1.65 m/h 0 %
05:00:00 clear sky 21.896 21.896 21.896 22 0.99 m/h 0 %
08:00:00 clear sky 27.041 27.041 27.041 16 1.85 m/h 0 %
11:00:00 clear sky 35.335 35.335 35.335 10 2.84 m/h 0 %
14:00:00 clear sky 37.419 37.419 37.419 8 3.9 m/h 0 %
17:00:00 clear sky 33.319 33.319 33.319 10 2.86 m/h 0 %
20:00:00 clear sky 26.450 26.450 26.450 15 1.6 m/h 0 %
23:00:00 clear sky 24.582 24.582 24.582 18 0.89 m/h 0 %
23-Oct-2019 (Wed)
02:00:00 clear sky 23.805 23.805 23.805 18 1.42 m/h 0 %
05:00:00 clear sky 23.378 23.378 23.378 20 2.49 m/h 0 %
08:00:00 clear sky 26.343 26.343 26.343 18 2.61 m/h 0 %
11:00:00 clear sky 35.094 35.094 35.094 9 3.86 m/h 0 %
14:00:00 clear sky 37.301 37.301 37.301 8 3.49 m/h 0 %


Burewala's Tourist Spots

Historical Places in Burewala

Famous Cities (61)